sensor_id;sensor_type;location;lat;lon;timestamp;P1;durP1;ratioP1;P2;durP2;ratioP2
62696;SDS011;48761;42.680;23.312;2023-08-07T00:00:26;1.40;;;1.30;;
62696;SDS011;48761;42.680;23.312;2023-08-07T00:02:52;1.60;;;1.13;;
62696;SDS011;48761;42.680;23.312;2023-08-07T00:05:18;2.63;;;1.15;;
62696;SDS011;48761;42.680;23.312;2023-08-07T00:07:47;1.65;;;1.45;;
62696;SDS011;48761;42.680;23.312;2023-08-07T00:10:14;3.40;;;2.30;;
62696;SDS011;48761;42.680;23.312;2023-08-07T00:12:41;2.22;;;1.55;;
62696;SDS011;48761;42.680;23.312;2023-08-07T00:15:13;2.08;;;1.35;;
62696;SDS011;48761;42.680;23.312;2023-08-07T00:17:41;3.50;;;1.48;;
62696;SDS011;48761;42.680;23.312;2023-08-07T00:20:08;2.55;;;1.58;;
62696;SDS011;48761;42.680;23.312;2023-08-07T00:22:34;2.35;;;1.60;;
62696;SDS011;48761;42.680;23.312;2023-08-07T00:25:00;1.98;;;1.50;;
62696;SDS011;48761;42.680;23.312;2023-08-07T00:27:26;1.67;;;1.48;;
62696;SDS011;48761;42.680;23.312;2023-08-07T00:29:52;1.90;;;1.70;;
62696;SDS011;48761;42.680;23.312;2023-08-07T00:32:18;1.95;;;1.75;;
62696;SDS011;48761;42.680;23.312;2023-08-07T00:34:46;3.22;;;1.60;;
62696;SDS011;48761;42.680;23.312;2023-08-07T00:37:12;3.63;;;2.63;;
62696;SDS011;48761;42.680;23.312;2023-08-07T00:39:38;2.55;;;1.80;;
62696;SDS011;48761;42.680;23.312;2023-08-07T00:42:04;3.30;;;2.75;;
62696;SDS011;48761;42.680;23.312;2023-08-07T00:44:30;3.67;;;3.08;;
62696;SDS011;48761;42.680;23.312;2023-08-07T00:46:57;4.68;;;3.67;;
62696;SDS011;48761;42.680;23.312;2023-08-07T00:49:23;5.15;;;4.60;;
62696;SDS011;48761;42.680;23.312;2023-08-07T00:51:51;5.38;;;4.18;;
62696;SDS011;48761;42.680;23.312;2023-08-07T00:54:18;7.45;;;5.20;;
62696;SDS011;48761;42.680;23.312;2023-08-07T00:56:45;6.32;;;5.40;;
62696;SDS011;48761;42.680;23.312;2023-08-07T00:59:12;7.35;;;4.15;;
62696;SDS011;48761;42.680;23.312;2023-08-07T01:01:40;4.05;;;3.30;;
62696;SDS011;48761;42.680;23.312;2023-08-07T01:04:06;5.93;;;4.00;;
62696;SDS011;48761;42.680;23.312;2023-08-07T01:06:32;4.00;;;3.25;;
62696;SDS011;48761;42.680;23.312;2023-08-07T01:09:04;3.97;;;3.40;;
62696;SDS011;48761;42.680;23.312;2023-08-07T01:11:33;3.03;;;2.50;;
62696;SDS011;48761;42.680;23.312;2023-08-07T01:19:35;3.38;;;2.78;;
62696;SDS011;48761;42.680;23.312;2023-08-07T01:24:33;3.53;;;2.40;;
62696;SDS011;48761;42.680;23.312;2023-08-07T01:27:02;3.17;;;2.40;;
62696;SDS011;48761;42.680;23.312;2023-08-07T01:29:35;4.22;;;3.58;;
62696;SDS011;48761;42.680;23.312;2023-08-07T01:32:08;4.88;;;4.18;;
62696;SDS011;48761;42.680;23.312;2023-08-07T01:34:36;4.60;;;3.80;;
62696;SDS011;48761;42.680;23.312;2023-08-07T01:37:06;4.13;;;3.72;;
62696;SDS011;48761;42.680;23.312;2023-08-07T01:39:34;6.90;;;2.85;;
62696;SDS011;48761;42.680;23.312;2023-08-07T01:42:02;3.03;;;2.42;;
62696;SDS011;48761;42.680;23.312;2023-08-07T01:44:29;3.53;;;2.28;;
62696;SDS011;48761;42.680;23.312;2023-08-07T01:46:55;2.22;;;2.03;;
62696;SDS011;48761;42.680;23.312;2023-08-07T01:49:21;3.45;;;2.30;;
62696;SDS011;48761;42.680;23.312;2023-08-07T01:51:47;3.65;;;2.30;;
62696;SDS011;48761;42.680;23.312;2023-08-07T01:54:13;2.92;;;2.50;;
62696;SDS011;48761;42.680;23.312;2023-08-07T01:56:39;2.67;;;2.20;;
62696;SDS011;48761;42.680;23.312;2023-08-07T01:59:05;2.88;;;2.22;;
62696;SDS011;48761;42.680;23.312;2023-08-07T02:01:31;2.78;;;2.10;;
62696;SDS011;48761;42.680;23.312;2023-08-07T02:03:57;3.42;;;2.17;;
62696;SDS011;48761;42.680;23.312;2023-08-07T02:06:23;2.72;;;2.30;;
62696;SDS011;48761;42.680;23.312;2023-08-07T02:08:48;2.40;;;2.20;;
62696;SDS011;48761;42.680;23.312;2023-08-07T02:11:14;3.00;;;2.50;;
62696;SDS011;48761;42.680;23.312;2023-08-07T02:13:40;2.63;;;2.42;;
62696;SDS011;48761;42.680;23.312;2023-08-07T02:16:06;2.20;;;2.00;;
62696;SDS011;48761;42.680;23.312;2023-08-07T02:18:32;3.33;;;2.42;;
62696;SDS011;48761;42.680;23.312;2023-08-07T02:20:58;4.03;;;2.30;;
62696;SDS011;48761;42.680;23.312;2023-08-07T02:23:24;2.25;;;2.05;;
62696;SDS011;48761;42.680;23.312;2023-08-07T02:25:50;3.05;;;2.67;;
62696;SDS011;48761;42.680;23.312;2023-08-07T02:28:16;7.20;;;5.32;;
62696;SDS011;48761;42.680;23.312;2023-08-07T02:30:44;5.63;;;4.60;;
62696;SDS011;48761;42.680;23.312;2023-08-07T02:33:11;3.65;;;2.67;;
62696;SDS011;48761;42.680;23.312;2023-08-07T02:35:37;3.10;;;2.65;;
62696;SDS011;48761;42.680;23.312;2023-08-07T02:38:03;6.05;;;2.50;;
62696;SDS011;48761;42.680;23.312;2023-08-07T02:40:29;4.82;;;2.30;;
62696;SDS011;48761;42.680;23.312;2023-08-07T02:42:55;2.33;;;2.13;;
62696;SDS011;48761;42.680;23.312;2023-08-07T02:45:21;2.75;;;2.17;;
62696;SDS011;48761;42.680;23.312;2023-08-07T02:47:47;3.42;;;2.30;;
62696;SDS011;48761;42.680;23.312;2023-08-07T02:50:13;3.22;;;2.17;;
62696;SDS011;48761;42.680;23.312;2023-08-07T02:52:39;3.33;;;2.55;;
62696;SDS011;48761;42.680;23.312;2023-08-07T02:55:05;3.63;;;3.00;;
62696;SDS011;48761;42.680;23.312;2023-08-07T02:57:31;5.40;;;3.92;;
62696;SDS011;48761;42.680;23.312;2023-08-07T02:59:57;4.60;;;3.72;;
62696;SDS011;48761;42.680;23.312;2023-08-07T03:02:23;3.92;;;3.40;;
62696;SDS011;48761;42.680;23.312;2023-08-07T03:04:49;3.20;;;2.70;;
62696;SDS011;48761;42.680;23.312;2023-08-07T03:07:18;4.18;;;2.85;;
62696;SDS011;48761;42.680;23.312;2023-08-07T03:09:52;5.10;;;2.80;;
62696;SDS011;48761;42.680;23.312;2023-08-07T03:12:18;3.13;;;2.70;;
62696;SDS011;48761;42.680;23.312;2023-08-07T03:14:44;4.07;;;3.10;;
62696;SDS011;48761;42.680;23.312;2023-08-07T03:17:10;3.28;;;2.58;;
62696;SDS011;48761;42.680;23.312;2023-08-07T03:19:49;2.55;;;2.35;;
62696;SDS011;48761;42.680;23.312;2023-08-07T03:22:16;4.13;;;3.15;;
62696;SDS011;48761;42.680;23.312;2023-08-07T03:24:47;4.18;;;3.10;;
62696;SDS011;48761;42.680;23.312;2023-08-07T03:27:14;3.80;;;2.33;;
62696;SDS011;48761;42.680;23.312;2023-08-07T03:29:40;4.45;;;3.05;;
62696;SDS011;48761;42.680;23.312;2023-08-07T03:32:06;4.32;;;2.90;;
62696;SDS011;48761;42.680;23.312;2023-08-07T03:34:34;7.75;;;5.93;;
62696;SDS011;48761;42.680;23.312;2023-08-07T03:37:00;13.32;;;7.55;;
62696;SDS011;48761;42.680;23.312;2023-08-07T03:39:26;6.18;;;4.40;;
62696;SDS011;48761;42.680;23.312;2023-08-07T03:41:52;5.10;;;4.20;;
62696;SDS011;48761;42.680;23.312;2023-08-07T03:44:18;8.10;;;5.38;;
62696;SDS011;48761;42.680;23.312;2023-08-07T03:46:44;4.15;;;2.97;;
62696;SDS011;48761;42.680;23.312;2023-08-07T03:49:10;11.23;;;8.05;;
62696;SDS011;48761;42.680;23.312;2023-08-07T03:51:36;11.25;;;8.68;;
62696;SDS011;48761;42.680;23.312;2023-08-07T03:54:02;12.10;;;7.00;;
62696;SDS011;48761;42.680;23.312;2023-08-07T03:56:27;10.35;;;8.23;;
62696;SDS011;48761;42.680;23.312;2023-08-07T03:58:53;14.07;;;9.32;;
62696;SDS011;48761;42.680;23.312;2023-08-07T04:01:27;18.58;;;14.20;;
62696;SDS011;48761;42.680;23.312;2023-08-07T04:07:09;20.35;;;16.38;;
62696;SDS011;48761;42.680;23.312;2023-08-07T04:09:38;21.87;;;15.47;;
62696;SDS011;48761;42.680;23.312;2023-08-07T04:12:04;14.30;;;9.48;;
62696;SDS011;48761;42.680;23.312;2023-08-07T04:14:33;15.73;;;9.18;;
62696;SDS011;48761;42.680;23.312;2023-08-07T04:17:01;4.00;;;3.40;;
62696;SDS011;48761;42.680;23.312;2023-08-07T04:19:38;7.15;;;6.15;;
62696;SDS011;48761;42.680;23.312;2023-08-07T04:22:32;4.20;;;3.40;;
62696;SDS011;48761;42.680;23.312;2023-08-07T04:25:11;6.45;;;4.40;;
62696;SDS011;48761;42.680;23.312;2023-08-07T04:27:49;5.82;;;3.85;;
62696;SDS011;48761;42.680;23.312;2023-08-07T04:30:23;4.90;;;2.97;;
62696;SDS011;48761;42.680;23.312;2023-08-07T04:32:56;4.30;;;2.97;;
62696;SDS011;48761;42.680;23.312;2023-08-07T04:35:22;4.13;;;3.20;;
62696;SDS011;48761;42.680;23.312;2023-08-07T04:37:48;7.00;;;3.75;;
62696;SDS011;48761;42.680;23.312;2023-08-07T04:40:14;7.68;;;5.05;;
62696;SDS011;48761;42.680;23.312;2023-08-07T04:42:40;7.68;;;4.25;;
62696;SDS011;48761;42.680;23.312;2023-08-07T04:45:06;3.00;;;2.53;;
62696;SDS011;48761;42.680;23.312;2023-08-07T04:47:32;3.88;;;2.50;;
62696;SDS011;48761;42.680;23.312;2023-08-07T04:49:59;4.00;;;2.45;;
62696;SDS011;48761;42.680;23.312;2023-08-07T04:52:33;7.90;;;2.60;;
62696;SDS011;48761;42.680;23.312;2023-08-07T04:55:06;3.90;;;3.00;;
62696;SDS011;48761;42.680;23.312;2023-08-07T04:57:35;3.92;;;2.60;;
62696;SDS011;48761;42.680;23.312;2023-08-07T05:00:04;3.88;;;2.88;;
62696;SDS011;48761;42.680;23.312;2023-08-07T05:02:30;4.00;;;2.38;;
62696;SDS011;48761;42.680;23.312;2023-08-07T05:04:57;4.47;;;2.20;;
62696;SDS011;48761;42.680;23.312;2023-08-07T05:07:23;2.45;;;2.20;;
62696;SDS011;48761;42.680;23.312;2023-08-07T05:09:56;2.40;;;2.17;;
62696;SDS011;48761;42.680;23.312;2023-08-07T05:12:22;6.53;;;4.88;;
62696;SDS011;48761;42.680;23.312;2023-08-07T05:14:48;9.82;;;6.82;;
62696;SDS011;48761;42.680;23.312;2023-08-07T05:17:14;6.60;;;4.78;;
62696;SDS011;48761;42.680;23.312;2023-08-07T05:19:40;4.05;;;2.60;;
62696;SDS011;48761;42.680;23.312;2023-08-07T05:22:08;4.55;;;3.10;;
62696;SDS011;48761;42.680;23.312;2023-08-07T05:24:34;5.43;;;2.67;;
62696;SDS011;48761;42.680;23.312;2023-08-07T05:27:00;6.05;;;2.70;;
62696;SDS011;48761;42.680;23.312;2023-08-07T05:29:26;4.75;;;2.28;;
62696;SDS011;48761;42.680;23.312;2023-08-07T05:31:55;5.10;;;2.45;;
62696;SDS011;48761;42.680;23.312;2023-08-07T05:34:21;3.08;;;2.22;;
62696;SDS011;48761;42.680;23.312;2023-08-07T05:36:47;2.80;;;1.92;;
62696;SDS011;48761;42.680;23.312;2023-08-07T05:39:32;6.85;;;2.75;;
62696;SDS011;48761;42.680;23.312;2023-08-07T05:42:03;2.13;;;1.73;;
62696;SDS011;48761;42.680;23.312;2023-08-07T05:44:30;2.30;;;1.70;;
62696;SDS011;48761;42.680;23.312;2023-08-07T05:47:26;2.28;;;1.80;;
62696;SDS011;48761;42.680;23.312;2023-08-07T05:49:55;5.88;;;2.35;;
62696;SDS011;48761;42.680;23.312;2023-08-07T05:52:22;4.85;;;3.40;;
62696;SDS011;48761;42.680;23.312;2023-08-07T05:54:48;10.13;;;4.47;;
62696;SDS011;48761;42.680;23.312;2023-08-07T05:57:14;7.70;;;4.05;;
62696;SDS011;48761;42.680;23.312;2023-08-07T05:59:41;3.78;;;2.75;;
62696;SDS011;48761;42.680;23.312;2023-08-07T06:02:07;4.45;;;2.30;;
62696;SDS011;48761;42.680;23.312;2023-08-07T06:04:34;7.65;;;2.55;;
62696;SDS011;48761;42.680;23.312;2023-08-07T06:07:01;6.05;;;2.53;;
62696;SDS011;48761;42.680;23.312;2023-08-07T06:09:29;2.45;;;1.90;;
62696;SDS011;48761;42.680;23.312;2023-08-07T06:11:57;2.95;;;2.13;;
62696;SDS011;48761;42.680;23.312;2023-08-07T06:14:30;6.07;;;2.20;;
62696;SDS011;48761;42.680;23.312;2023-08-07T06:17:17;2.60;;;1.90;;
62696;SDS011;48761;42.680;23.312;2023-08-07T06:22:52;2.75;;;2.33;;
62696;SDS011;48761;42.680;23.312;2023-08-07T06:33:17;7.03;;;2.42;;
62696;SDS011;48761;42.680;23.312;2023-08-07T07:03:03;1.73;;;1.30;;
62696;SDS011;48761;42.680;23.312;2023-08-07T07:05:30;3.28;;;1.48;;
62696;SDS011;48761;42.680;23.312;2023-08-07T07:08:00;3.38;;;1.20;;
62696;SDS011;48761;42.680;23.312;2023-08-07T07:10:28;6.80;;;1.75;;
62696;SDS011;48761;42.680;23.312;2023-08-07T07:13:02;3.35;;;2.08;;
62696;SDS011;48761;42.680;23.312;2023-08-07T07:15:29;4.32;;;1.70;;
62696;SDS011;48761;42.680;23.312;2023-08-07T07:17:58;3.38;;;1.70;;
62696;SDS011;48761;42.680;23.312;2023-08-07T07:20:26;1.50;;;1.00;;
62696;SDS011;48761;42.680;23.312;2023-08-07T07:22:52;2.42;;;1.92;;
62696;SDS011;48761;42.680;23.312;2023-08-07T07:25:23;2.90;;;1.83;;
62696;SDS011;48761;42.680;23.312;2023-08-07T07:27:54;7.15;;;1.30;;
62696;SDS011;48761;42.680;23.312;2023-08-07T07:30:24;2.67;;;1.30;;
62696;SDS011;48761;42.680;23.312;2023-08-07T07:32:59;3.13;;;1.30;;
62696;SDS011;48761;42.680;23.312;2023-08-07T07:35:25;2.03;;;1.30;;
62696;SDS011;48761;42.680;23.312;2023-08-07T07:37:51;2.22;;;1.30;;
62696;SDS011;48761;42.680;23.312;2023-08-07T07:40:24;2.58;;;1.45;;
62696;SDS011;48761;42.680;23.312;2023-08-07T07:42:52;2.15;;;1.10;;
62696;SDS011;48761;42.680;23.312;2023-08-07T07:45:23;1.55;;;1.00;;
62696;SDS011;48761;42.680;23.312;2023-08-07T07:47:54;3.38;;;1.27;;
62696;SDS011;48761;42.680;23.312;2023-08-07T07:50:26;3.63;;;1.20;;
62696;SDS011;48761;42.680;23.312;2023-08-07T07:52:53;3.25;;;1.42;;
62696;SDS011;48761;42.680;23.312;2023-08-07T07:55:20;2.72;;;1.50;;
62696;SDS011;48761;42.680;23.312;2023-08-07T07:57:49;1.60;;;1.23;;
62696;SDS011;48761;42.680;23.312;2023-08-07T08:00:15;1.80;;;1.08;;
62696;SDS011;48761;42.680;23.312;2023-08-07T08:02:43;2.38;;;1.65;;
62696;SDS011;48761;42.680;23.312;2023-08-07T08:05:10;2.38;;;1.60;;
62696;SDS011;48761;42.680;23.312;2023-08-07T08:07:37;1.98;;;1.50;;
62696;SDS011;48761;42.680;23.312;2023-08-07T08:10:04;1.77;;;1.50;;
62696;SDS011;48761;42.680;23.312;2023-08-07T08:12:34;5.43;;;2.00;;
62696;SDS011;48761;42.680;23.312;2023-08-07T08:15:01;2.83;;;1.45;;
62696;SDS011;48761;42.680;23.312;2023-08-07T08:17:28;4.82;;;1.50;;
62696;SDS011;48761;42.680;23.312;2023-08-07T08:19:54;3.78;;;1.40;;
62696;SDS011;48761;42.680;23.312;2023-08-07T08:22:30;3.80;;;1.55;;
62696;SDS011;48761;42.680;23.312;2023-08-07T08:24:57;11.90;;;2.80;;
62696;SDS011;48761;42.680;23.312;2023-08-07T08:27:24;8.13;;;1.60;;
62696;SDS011;48761;42.680;23.312;2023-08-07T08:29:52;2.78;;;1.40;;
62696;SDS011;48761;42.680;23.312;2023-08-07T08:32:18;4.20;;;1.75;;
62696;SDS011;48761;42.680;23.312;2023-08-07T08:34:49;1.67;;;1.30;;
62696;SDS011;48761;42.680;23.312;2023-08-07T08:39:44;5.25;;;2.00;;
62696;SDS011;48761;42.680;23.312;2023-08-07T08:42:12;2.58;;;1.33;;
62696;SDS011;48761;42.680;23.312;2023-08-07T08:44:40;2.38;;;1.50;;
62696;SDS011;48761;42.680;23.312;2023-08-07T08:47:07;3.47;;;1.90;;
62696;SDS011;48761;42.680;23.312;2023-08-07T08:49:48;5.72;;;1.65;;
62696;SDS011;48761;42.680;23.312;2023-08-07T08:52:22;1.85;;;1.20;;
62696;SDS011;48761;42.680;23.312;2023-08-07T08:54:57;2.17;;;1.20;;
62696;SDS011;48761;42.680;23.312;2023-08-07T08:57:27;3.60;;;1.70;;
62696;SDS011;48761;42.680;23.312;2023-08-07T08:59:55;4.07;;;1.13;;
62696;SDS011;48761;42.680;23.312;2023-08-07T09:02:25;2.97;;;1.70;;
62696;SDS011;48761;42.680;23.312;2023-08-07T09:04:51;1.77;;;1.35;;
62696;SDS011;48761;42.680;23.312;2023-08-07T09:07:19;3.55;;;1.58;;
62696;SDS011;48761;42.680;23.312;2023-08-07T09:09:47;3.58;;;2.05;;
62696;SDS011;48761;42.680;23.312;2023-08-07T09:12:23;2.03;;;1.25;;
62696;SDS011;48761;42.680;23.312;2023-08-07T09:14:56;3.78;;;2.13;;
62696;SDS011;48761;42.680;23.312;2023-08-07T09:17:33;2.05;;;1.48;;
62696;SDS011;48761;42.680;23.312;2023-08-07T09:20:04;3.80;;;1.52;;
62696;SDS011;48761;42.680;23.312;2023-08-07T09:22:31;2.10;;;1.52;;
62696;SDS011;48761;42.680;23.312;2023-08-07T09:24:57;2.50;;;1.90;;
62696;SDS011;48761;42.680;23.312;2023-08-07T09:27:23;1.75;;;1.02;;
62696;SDS011;48761;42.680;23.312;2023-08-07T09:29:49;2.10;;;1.40;;
62696;SDS011;48761;42.680;23.312;2023-08-07T09:32:16;2.92;;;1.30;;
62696;SDS011;48761;42.680;23.312;2023-08-07T09:34:42;1.73;;;1.30;;
62696;SDS011;48761;42.680;23.312;2023-08-07T09:37:08;1.55;;;1.15;;
62696;SDS011;48761;42.680;23.312;2023-08-07T09:39:35;8.23;;;1.70;;
62696;SDS011;48761;42.680;23.312;2023-08-07T09:42:02;2.72;;;1.50;;
62696;SDS011;48761;42.680;23.312;2023-08-07T09:44:38;3.15;;;1.70;;
62696;SDS011;48761;42.680;23.312;2023-08-07T09:47:13;1.33;;;1.10;;
62696;SDS011;48761;42.680;23.312;2023-08-07T09:49:41;3.65;;;2.20;;
62696;SDS011;48761;42.680;23.312;2023-08-07T09:52:09;3.38;;;1.73;;
62696;SDS011;48761;42.680;23.312;2023-08-07T09:54:36;1.58;;;1.33;;
62696;SDS011;48761;42.680;23.312;2023-08-07T09:57:02;2.75;;;1.73;;
62696;SDS011;48761;42.680;23.312;2023-08-07T09:59:29;4.25;;;2.22;;
62696;SDS011;48761;42.680;23.312;2023-08-07T10:01:57;2.85;;;2.22;;
62696;SDS011;48761;42.680;23.312;2023-08-07T10:04:25;5.22;;;2.80;;
62696;SDS011;48761;42.680;23.312;2023-08-07T10:06:52;3.25;;;1.60;;
62696;SDS011;48761;42.680;23.312;2023-08-07T10:09:20;3.15;;;1.92;;
62696;SDS011;48761;42.680;23.312;2023-08-07T10:11:46;4.90;;;1.50;;
62696;SDS011;48761;42.680;23.312;2023-08-07T10:14:15;5.28;;;1.80;;
62696;SDS011;48761;42.680;23.312;2023-08-07T10:16:44;2.22;;;1.38;;
62696;SDS011;48761;42.680;23.312;2023-08-07T10:19:14;1.88;;;1.42;;
62696;SDS011;48761;42.680;23.312;2023-08-07T10:21:42;1.48;;;1.13;;
62696;SDS011;48761;42.680;23.312;2023-08-07T10:24:10;3.63;;;1.65;;
62696;SDS011;48761;42.680;23.312;2023-08-07T10:26:44;3.38;;;1.40;;
62696;SDS011;48761;42.680;23.312;2023-08-07T10:29:13;3.92;;;3.20;;
62696;SDS011;48761;42.680;23.312;2023-08-07T10:31:42;3.17;;;1.85;;
62696;SDS011;48761;42.680;23.312;2023-08-07T10:34:20;2.92;;;1.50;;
62696;SDS011;48761;42.680;23.312;2023-08-07T10:37:10;2.17;;;1.30;;
62696;SDS011;48761;42.680;23.312;2023-08-07T10:40:05;2.65;;;1.70;;
62696;SDS011;48761;42.680;23.312;2023-08-07T10:42:33;2.90;;;1.27;;
62696;SDS011;48761;42.680;23.312;2023-08-07T10:45:21;1.58;;;1.40;;
62696;SDS011;48761;42.680;23.312;2023-08-07T10:48:10;2.22;;;1.52;;
62696;SDS011;48761;42.680;23.312;2023-08-07T10:50:55;3.97;;;1.20;;
62696;SDS011;48761;42.680;23.312;2023-08-07T10:53:33;6.07;;;2.45;;
62696;SDS011;48761;42.680;23.312;2023-08-07T10:56:51;2.50;;;1.60;;
62696;SDS011;48761;42.680;23.312;2023-08-07T10:58:56;3.58;;;1.98;;
62696;SDS011;48761;42.680;23.312;2023-08-07T11:03:55;3.20;;;2.47;;
62696;SDS011;48761;42.680;23.312;2023-08-07T11:06:23;2.08;;;1.38;;
62696;SDS011;48761;42.680;23.312;2023-08-07T11:08:50;2.83;;;1.30;;
62696;SDS011;48761;42.680;23.312;2023-08-07T11:11:19;1.80;;;1.42;;
62696;SDS011;48761;42.680;23.312;2023-08-07T11:13:49;3.10;;;1.58;;
62696;SDS011;48761;42.680;23.312;2023-08-07T11:16:16;4.70;;;1.40;;
62696;SDS011;48761;42.680;23.312;2023-08-07T11:18:43;8.40;;;1.50;;
62696;SDS011;48761;42.680;23.312;2023-08-07T11:21:13;2.17;;;1.50;;
62696;SDS011;48761;42.680;23.312;2023-08-07T11:23:40;4.07;;;2.20;;
62696;SDS011;48761;42.680;23.312;2023-08-07T11:26:09;4.15;;;2.63;;
62696;SDS011;48761;42.680;23.312;2023-08-07T11:28:35;2.50;;;1.50;;
62696;SDS011;48761;42.680;23.312;2023-08-07T11:31:02;2.88;;;1.58;;
62696;SDS011;48761;42.680;23.312;2023-08-07T11:33:29;2.55;;;1.80;;
62696;SDS011;48761;42.680;23.312;2023-08-07T11:35:55;3.47;;;1.38;;
62696;SDS011;48761;42.680;23.312;2023-08-07T11:38:34;2.92;;;1.65;;
62696;SDS011;48761;42.680;23.312;2023-08-07T11:41:03;5.40;;;2.10;;
62696;SDS011;48761;42.680;23.312;2023-08-07T11:43:31;3.58;;;1.55;;
62696;SDS011;48761;42.680;23.312;2023-08-07T11:46:01;2.22;;;1.25;;
62696;SDS011;48761;42.680;23.312;2023-08-07T11:48:30;2.58;;;1.42;;
62696;SDS011;48761;42.680;23.312;2023-08-07T11:50:58;2.58;;;1.85;;
62696;SDS011;48761;42.680;23.312;2023-08-07T11:53:26;6.10;;;1.60;;
62696;SDS011;48761;42.680;23.312;2023-08-07T11:55:57;2.83;;;1.80;;
62696;SDS011;48761;42.680;23.312;2023-08-07T11:58:32;3.65;;;1.60;;
62696;SDS011;48761;42.680;23.312;2023-08-07T12:01:04;2.08;;;1.38;;
62696;SDS011;48761;42.680;23.312;2023-08-07T12:03:38;3.90;;;1.58;;
62696;SDS011;48761;42.680;23.312;2023-08-07T12:06:18;3.15;;;1.42;;
62696;SDS011;48761;42.680;23.312;2023-08-07T12:08:44;2.55;;;1.48;;
62696;SDS011;48761;42.680;23.312;2023-08-07T12:11:11;4.22;;;1.70;;
62696;SDS011;48761;42.680;23.312;2023-08-07T12:13:39;2.08;;;1.60;;
62696;SDS011;48761;42.680;23.312;2023-08-07T12:16:06;2.60;;;1.65;;
62696;SDS011;48761;42.680;23.312;2023-08-07T12:18:33;2.85;;;1.65;;
62696;SDS011;48761;42.680;23.312;2023-08-07T12:21:01;5.45;;;2.22;;
62696;SDS011;48761;42.680;23.312;2023-08-07T12:23:29;2.78;;;1.80;;
62696;SDS011;48761;42.680;23.312;2023-08-07T12:25:58;2.38;;;1.60;;
62696;SDS011;48761;42.680;23.312;2023-08-07T12:28:24;1.90;;;1.42;;
62696;SDS011;48761;42.680;23.312;2023-08-07T12:30:51;1.98;;;1.70;;
62696;SDS011;48761;42.680;23.312;2023-08-07T12:33:17;4.50;;;1.80;;
62696;SDS011;48761;42.680;23.312;2023-08-07T12:35:43;5.28;;;1.52;;
62696;SDS011;48761;42.680;23.312;2023-08-07T12:38:10;3.92;;;2.25;;
62696;SDS011;48761;42.680;23.312;2023-08-07T12:40:36;6.07;;;4.03;;
62696;SDS011;48761;42.680;23.312;2023-08-07T12:43:03;5.70;;;2.38;;
62696;SDS011;48761;42.680;23.312;2023-08-07T12:45:30;2.78;;;2.10;;
62696;SDS011;48761;42.680;23.312;2023-08-07T12:47:56;3.22;;;1.95;;
62696;SDS011;48761;42.680;23.312;2023-08-07T12:50:22;15.95;;;9.90;;
62696;SDS011;48761;42.680;23.312;2023-08-07T12:52:48;2.55;;;1.42;;
62696;SDS011;48761;42.680;23.312;2023-08-07T12:55:14;1.83;;;1.45;;
62696;SDS011;48761;42.680;23.312;2023-08-07T12:57:41;6.03;;;1.85;;
62696;SDS011;48761;42.680;23.312;2023-08-07T13:00:23;3.47;;;2.03;;
62696;SDS011;48761;42.680;23.312;2023-08-07T13:02:50;3.45;;;2.35;;
62696;SDS011;48761;42.680;23.312;2023-08-07T13:05:20;2.75;;;1.60;;
62696;SDS011;48761;42.680;23.312;2023-08-07T13:07:46;5.00;;;1.88;;
62696;SDS011;48761;42.680;23.312;2023-08-07T13:10:14;3.70;;;2.10;;
62696;SDS011;48761;42.680;23.312;2023-08-07T13:12:42;3.72;;;1.75;;
62696;SDS011;48761;42.680;23.312;2023-08-07T13:15:12;4.60;;;1.80;;
62696;SDS011;48761;42.680;23.312;2023-08-07T13:17:39;7.03;;;2.60;;
62696;SDS011;48761;42.680;23.312;2023-08-07T13:20:06;3.97;;;2.40;;
62696;SDS011;48761;42.680;23.312;2023-08-07T13:22:34;8.30;;;2.05;;
62696;SDS011;48761;42.680;23.312;2023-08-07T13:25:03;6.70;;;1.80;;
62696;SDS011;48761;42.680;23.312;2023-08-07T13:27:42;2.30;;;1.70;;
62696;SDS011;48761;42.680;23.312;2023-08-07T13:30:09;2.17;;;1.48;;
62696;SDS011;48761;42.680;23.312;2023-08-07T13:32:35;4.57;;;1.33;;
62696;SDS011;48761;42.680;23.312;2023-08-07T13:35:02;2.90;;;1.42;;
62696;SDS011;48761;42.680;23.312;2023-08-07T13:37:28;2.38;;;1.60;;
62696;SDS011;48761;42.680;23.312;2023-08-07T13:39:54;7.88;;;1.48;;
62696;SDS011;48761;42.680;23.312;2023-08-07T13:42:23;1.70;;;1.23;;
62696;SDS011;48761;42.680;23.312;2023-08-07T13:44:49;1.20;;;1.10;;
62696;SDS011;48761;42.680;23.312;2023-08-07T13:47:15;4.43;;;1.95;;
62696;SDS011;48761;42.680;23.312;2023-08-07T13:49:41;2.97;;;1.42;;
62696;SDS011;48761;42.680;23.312;2023-08-07T13:52:07;1.60;;;1.45;;
62696;SDS011;48761;42.680;23.312;2023-08-07T13:54:33;2.97;;;1.30;;
62696;SDS011;48761;42.680;23.312;2023-08-07T13:56:59;1.83;;;1.30;;
62696;SDS011;48761;42.680;23.312;2023-08-07T13:59:27;2.88;;;2.08;;
62696;SDS011;48761;42.680;23.312;2023-08-07T14:02:05;2.78;;;1.42;;
62696;SDS011;48761;42.680;23.312;2023-08-07T14:04:32;2.78;;;1.40;;
62696;SDS011;48761;42.680;23.312;2023-08-07T14:06:59;1.50;;;1.30;;
62696;SDS011;48761;42.680;23.312;2023-08-07T14:09:26;2.42;;;1.60;;
62696;SDS011;48761;42.680;23.312;2023-08-07T14:11:52;2.25;;;1.63;;
62696;SDS011;48761;42.680;23.312;2023-08-07T14:14:21;2.25;;;1.42;;
62696;SDS011;48761;42.680;23.312;2023-08-07T14:16:51;3.13;;;1.80;;
62696;SDS011;48761;42.680;23.312;2023-08-07T14:19:23;2.70;;;1.70;;
62696;SDS011;48761;42.680;23.312;2023-08-07T14:21:53;3.95;;;1.60;;
62696;SDS011;48761;42.680;23.312;2023-08-07T14:24:22;8.30;;;2.13;;
62696;SDS011;48761;42.680;23.312;2023-08-07T14:26:48;4.35;;;2.95;;
62696;SDS011;48761;42.680;23.312;2023-08-07T14:29:14;6.07;;;3.20;;
62696;SDS011;48761;42.680;23.312;2023-08-07T14:34:52;3.10;;;1.58;;
62696;SDS011;48761;42.680;23.312;2023-08-07T14:37:21;3.25;;;1.85;;
62696;SDS011;48761;42.680;23.312;2023-08-07T14:39:55;5.03;;;1.90;;
62696;SDS011;48761;42.680;23.312;2023-08-07T14:42:21;3.60;;;1.52;;
62696;SDS011;48761;42.680;23.312;2023-08-07T14:44:48;1.83;;;1.42;;
62696;SDS011;48761;42.680;23.312;2023-08-07T14:47:16;5.15;;;1.90;;
62696;SDS011;48761;42.680;23.312;2023-08-07T14:49:42;2.33;;;1.67;;
62696;SDS011;48761;42.680;23.312;2023-08-07T14:52:10;6.00;;;2.20;;
62696;SDS011;48761;42.680;23.312;2023-08-07T14:54:36;4.70;;;1.80;;
62696;SDS011;48761;42.680;23.312;2023-08-07T14:57:02;2.67;;;2.10;;
62696;SDS011;48761;42.680;23.312;2023-08-07T14:59:28;4.28;;;1.80;;
62696;SDS011;48761;42.680;23.312;2023-08-07T15:01:54;6.05;;;2.65;;
62696;SDS011;48761;42.680;23.312;2023-08-07T15:04:23;1.95;;;1.30;;
62696;SDS011;48761;42.680;23.312;2023-08-07T15:06:50;3.67;;;1.60;;
62696;SDS011;48761;42.680;23.312;2023-08-07T15:09:16;6.68;;;2.53;;
62696;SDS011;48761;42.680;23.312;2023-08-07T15:11:42;4.10;;;1.95;;
62696;SDS011;48761;42.680;23.312;2023-08-07T15:16:58;4.90;;;1.92;;
62696;SDS011;48761;42.680;23.312;2023-08-07T15:19:25;6.72;;;3.10;;
62696;SDS011;48761;42.680;23.312;2023-08-07T15:21:51;4.10;;;2.10;;
62696;SDS011;48761;42.680;23.312;2023-08-07T15:24:18;3.50;;;1.67;;
62696;SDS011;48761;42.680;23.312;2023-08-07T15:26:44;4.95;;;1.98;;
62696;SDS011;48761;42.680;23.312;2023-08-07T15:29:10;5.15;;;2.40;;
62696;SDS011;48761;42.680;23.312;2023-08-07T15:31:37;9.35;;;2.47;;
62696;SDS011;48761;42.680;23.312;2023-08-07T15:34:03;3.83;;;2.28;;
62696;SDS011;48761;42.680;23.312;2023-08-07T15:36:29;4.47;;;2.10;;
62696;SDS011;48761;42.680;23.312;2023-08-07T15:38:54;4.47;;;2.15;;
62696;SDS011;48761;42.680;23.312;2023-08-07T15:41:21;4.95;;;2.28;;